createdAt,value
2023-05-19T00:01:01.377Z,11.00
2023-05-19T00:03:31.331Z,11.00
2023-05-19T00:06:02.345Z,10.90
2023-05-19T00:08:32.123Z,10.80
2023-05-19T00:11:02.642Z,10.80
2023-05-19T00:13:31.058Z,10.70
2023-05-19T00:15:59.667Z,10.60
2023-05-19T00:18:29.833Z,10.50
2023-05-19T00:20:57.873Z,10.50
2023-05-19T00:23:25.950Z,10.40
2023-05-19T00:25:54.136Z,10.30
2023-05-19T00:28:23.487Z,10.30
2023-05-19T00:30:52.502Z,10.20
2023-05-19T00:33:20.474Z,10.20
2023-05-19T00:35:48.643Z,10.10
2023-05-19T00:38:16.645Z,10.10
2023-05-19T00:40:45.030Z,10.10
2023-05-19T00:43:13.382Z,10.00
2023-05-19T00:45:43.048Z,10.00
2023-05-19T00:48:11.186Z,10.00
2023-05-19T00:50:39.382Z,10.10
2023-05-19T00:53:07.744Z,10.10
2023-05-19T00:55:37.949Z,10.10
2023-05-19T00:58:06.650Z,10.20
2023-05-19T01:00:37.218Z,10.20
2023-05-19T01:03:11.500Z,10.20
2023-05-19T01:05:44.776Z,10.30
2023-05-19T01:08:13.101Z,10.30
2023-05-19T01:10:41.166Z,10.30
2023-05-19T01:13:10.047Z,10.30
2023-05-19T01:15:49.713Z,10.30
2023-05-19T01:18:26.420Z,10.30
2023-05-19T01:21:08.482Z,10.40
2023-05-19T01:23:43.407Z,10.40
2023-05-19T01:26:25.988Z,10.40
2023-05-19T01:29:28.329Z,10.40
2023-05-19T01:32:01.130Z,10.50
2023-05-19T01:34:30.480Z,10.50
2023-05-19T01:37:01.941Z,10.50
2023-05-19T01:39:31.051Z,10.50
2023-05-19T01:42:00.157Z,10.60
2023-05-19T01:44:30.339Z,10.50
2023-05-19T01:47:00.640Z,10.50
2023-05-19T01:49:28.801Z,10.60
2023-05-19T01:51:58.100Z,10.50
2023-05-19T01:54:26.168Z,10.50
2023-05-19T01:57:04.062Z,10.60
2023-05-19T01:59:43.229Z,10.60
2023-05-19T02:02:26.843Z,10.50
2023-05-19T02:05:00.904Z,10.60
2023-05-19T02:07:36.532Z,10.60
2023-05-19T02:10:11.827Z,10.50
2023-05-19T02:12:41.899Z,10.50
2023-05-19T02:15:14.993Z,10.50
2023-05-19T02:17:48.166Z,10.50
2023-05-19T02:20:17.174Z,10.50
2023-05-19T02:22:45.408Z,10.50
2023-05-19T02:25:14.663Z,10.50
2023-05-19T02:27:43.369Z,10.50
2023-05-19T02:30:12.184Z,10.60
2023-05-19T02:32:40.336Z,10.60
2023-05-19T02:35:10.418Z,10.60
2023-05-19T02:37:38.785Z,10.60
2023-05-19T02:40:08.253Z,10.60
2023-05-19T02:42:36.361Z,10.60
2023-05-19T02:45:05.597Z,10.60
2023-05-19T02:47:36.203Z,10.60
2023-05-19T02:50:06.295Z,10.60
2023-05-19T02:52:35.728Z,10.70
2023-05-19T02:55:03.711Z,10.70
2023-05-19T02:57:33.232Z,10.60
2023-05-19T03:00:01.681Z,10.60
2023-05-19T03:02:30.011Z,10.70
2023-05-19T03:04:58.091Z,10.70
2023-05-19T03:07:26.777Z,10.70
2023-05-19T03:09:56.148Z,10.60
2023-05-19T03:12:24.537Z,10.70
2023-05-19T03:14:52.643Z,10.70
2023-05-19T03:17:20.761Z,10.70
2023-05-19T03:19:48.843Z,10.70
2023-05-19T03:22:18.513Z,10.80
2023-05-19T03:24:46.842Z,10.80
2023-05-19T03:27:16.603Z,10.80
2023-05-19T03:29:44.796Z,10.80
2023-05-19T03:32:12.972Z,10.80
2023-05-19T03:34:41.075Z,10.80
2023-05-19T03:37:10.670Z,10.80
2023-05-19T03:39:40.724Z,10.80
2023-05-19T03:42:09.096Z,10.80
2023-05-19T03:44:38.595Z,10.90
2023-05-19T03:47:07.554Z,10.90
2023-05-19T03:50:13.812Z,10.90
2023-05-19T03:52:58.198Z,10.90
2023-05-19T03:55:32.638Z,11.00
2023-05-19T03:58:00.652Z,11.00
2023-05-19T04:00:30.177Z,11.00
2023-05-19T04:03:00.006Z,11.00
2023-05-19T04:05:28.099Z,11.00
2023-05-19T04:07:56.233Z,11.10
2023-05-19T04:10:24.760Z,11.10
2023-05-19T04:12:55.700Z,11.10
2023-05-19T04:15:24.677Z,11.10
2023-05-19T04:17:54.080Z,11.20
2023-05-19T04:20:22.305Z,11.20
2023-05-19T04:22:51.965Z,11.20
2023-05-19T04:25:20.359Z,11.20
2023-05-19T04:27:48.882Z,11.20
2023-05-19T04:30:22.331Z,11.20
2023-05-19T04:32:52.831Z,11.20
2023-05-19T04:35:22.636Z,11.30
2023-05-19T04:37:54.367Z,11.30
2023-05-19T04:40:27.032Z,11.30
2023-05-19T04:42:55.181Z,11.30
2023-05-19T04:45:25.804Z,11.40
2023-05-19T04:47:58.587Z,11.40
2023-05-19T04:50:28.665Z,11.50
2023-05-19T04:52:59.292Z,11.50
2023-05-19T04:55:27.838Z,11.50
2023-05-19T04:57:56.092Z,11.60
2023-05-19T05:00:25.327Z,11.60
2023-05-19T05:03:00.290Z,11.70
2023-05-19T05:05:30.980Z,11.70
2023-05-19T05:07:59.817Z,11.80
2023-05-19T05:10:31.146Z,11.90
2023-05-19T05:13:00.818Z,11.90
2023-05-19T05:15:29.954Z,12.00
2023-05-19T05:18:02.540Z,12.10
2023-05-19T05:20:32.512Z,12.10
2023-05-19T05:23:02.092Z,12.30
2023-05-19T05:25:33.081Z,12.40
2023-05-19T05:28:05.033Z,12.50
2023-05-19T05:30:35.781Z,12.60
2023-05-19T05:33:07.253Z,12.60
2023-05-19T05:35:39.066Z,12.70
2023-05-19T05:38:08.643Z,12.70
2023-05-19T05:40:38.289Z,12.70
2023-05-19T05:43:07.958Z,12.80
2023-05-19T05:45:42.746Z,12.80
2023-05-19T05:48:13.453Z,12.90
2023-05-19T05:50:43.600Z,13.00
2023-05-19T05:53:17.794Z,13.00
2023-05-19T05:55:47.047Z,13.00
2023-05-19T05:58:17.008Z,13.00
2023-05-19T06:00:45.301Z,13.10
2023-05-19T06:03:15.163Z,13.10
2023-05-19T06:05:43.427Z,13.10
2023-05-19T06:08:11.830Z,13.20
2023-05-19T06:10:41.823Z,13.20
2023-05-19T06:13:11.079Z,13.30
2023-05-19T06:15:41.211Z,13.30
2023-05-19T06:18:20.369Z,13.30
2023-05-19T06:20:49.659Z,13.40
2023-05-19T06:23:17.859Z,13.50
2023-05-19T06:25:46.147Z,13.50
2023-05-19T06:28:14.672Z,13.60
2023-05-19T06:30:42.807Z,13.60
2023-05-19T06:33:22.873Z,13.70
2023-05-19T06:35:50.932Z,13.80
2023-05-19T06:38:19.224Z,13.90
2023-05-19T06:40:47.285Z,13.90
2023-05-19T06:43:15.433Z,13.90
2023-05-19T06:45:55.115Z,14.00
2023-05-19T06:48:26.662Z,14.10
2023-05-19T06:50:54.956Z,14.20
2023-05-19T06:53:23.363Z,14.20
2023-05-19T06:55:59.454Z,14.20
2023-05-19T06:58:29.643Z,14.20
2023-05-19T07:00:58.472Z,14.20
2023-05-19T07:03:32.096Z,14.30
2023-05-19T07:06:00.759Z,14.30
2023-05-19T07:08:29.660Z,14.40
2023-05-19T07:11:00.358Z,14.40
2023-05-19T07:13:29.869Z,14.50
2023-05-19T07:15:58.426Z,14.60
2023-05-19T07:18:31.807Z,14.70
2023-05-19T07:21:01.299Z,14.70
2023-05-19T07:23:29.368Z,14.70
2023-05-19T07:25:57.926Z,14.80
2023-05-19T07:28:26.110Z,14.90
2023-05-19T07:30:54.171Z,15.00
2023-05-19T07:33:22.169Z,15.10
2023-05-19T07:35:50.156Z,15.20
2023-05-19T07:38:19.528Z,15.20
2023-05-19T07:40:47.567Z,15.30
2023-05-19T07:43:15.705Z,15.50
2023-05-19T07:45:43.743Z,15.50
2023-05-19T07:48:11.923Z,15.40
2023-05-19T07:50:40.788Z,15.40
2023-05-19T07:53:08.918Z,15.50
2023-05-19T07:55:38.215Z,15.70
2023-05-19T07:58:06.826Z,15.70
2023-05-19T08:00:35.148Z,15.80
2023-05-19T08:03:03.694Z,15.80
2023-05-19T08:05:31.779Z,15.90
2023-05-19T08:07:59.792Z,16.00
2023-05-19T08:10:27.801Z,15.90
2023-05-19T08:12:57.790Z,16.00
2023-05-19T08:15:26.423Z,16.20
2023-05-19T08:17:54.538Z,16.20
2023-05-19T08:20:24.403Z,16.30
2023-05-19T08:22:52.557Z,16.30
2023-05-19T08:25:20.799Z,16.40
2023-05-19T08:27:48.948Z,16.30
2023-05-19T08:30:18.314Z,16.40
2023-05-19T08:32:46.493Z,16.40
2023-05-19T08:35:14.824Z,16.50
2023-05-19T08:37:42.900Z,16.60
2023-05-19T08:40:17.235Z,16.70
2023-05-19T08:42:45.658Z,16.70
2023-05-19T08:45:14.115Z,16.70
2023-05-19T08:47:47.279Z,16.80
2023-05-19T08:50:22.871Z,16.80
2023-05-19T08:52:55.169Z,16.90
2023-05-19T08:55:34.172Z,16.80
2023-05-19T08:58:04.517Z,16.80
2023-05-19T09:00:33.125Z,16.80
2023-05-19T09:03:17.501Z,16.80
2023-05-19T09:05:51.789Z,16.80
2023-05-19T09:08:19.974Z,16.80
2023-05-19T09:10:47.988Z,16.80
2023-05-19T09:13:15.990Z,17.00
2023-05-19T09:15:46.548Z,17.20
2023-05-19T09:18:16.024Z,17.40
2023-05-19T09:20:46.046Z,17.50
2023-05-19T09:23:16.150Z,17.70
2023-05-19T09:25:51.626Z,17.70
2023-05-19T09:28:25.333Z,17.70
2023-05-19T09:31:00.890Z,17.80
2023-05-19T09:33:31.116Z,17.80
2023-05-19T09:35:59.229Z,17.90
2023-05-19T09:38:30.089Z,18.00
2023-05-19T09:40:59.364Z,18.00
2023-05-19T09:43:29.577Z,17.90
2023-05-19T09:46:01.810Z,17.80
2023-05-19T09:48:31.367Z,17.90
2023-05-19T09:51:01.335Z,17.80
2023-05-19T09:53:32.403Z,17.80
2023-05-19T09:56:02.428Z,17.80
2023-05-19T09:58:34.750Z,17.70
2023-05-19T10:01:05.111Z,17.60
2023-05-19T10:03:35.855Z,17.50
2023-05-19T10:06:05.640Z,17.60
2023-05-19T10:08:35.865Z,17.60
2023-05-19T10:11:04.844Z,17.80
2023-05-19T10:13:35.131Z,17.90
2023-05-19T10:16:03.766Z,17.90
2023-05-19T10:18:33.937Z,18.00
2023-05-19T10:21:04.403Z,18.30
2023-05-19T10:23:32.439Z,18.40
2023-05-19T10:26:02.292Z,18.30
2023-05-19T10:28:38.899Z,18.20
2023-05-19T10:31:10.773Z,18.10
2023-05-19T10:33:51.562Z,18.10
2023-05-19T10:36:45.916Z,18.30
2023-05-19T10:39:18.969Z,18.40
2023-05-19T10:41:52.943Z,18.60
2023-05-19T10:44:32.656Z,18.70
2023-05-19T10:47:01.506Z,18.80
2023-05-19T10:49:29.637Z,18.90
2023-05-19T10:51:59.081Z,18.80
2023-05-19T10:54:43.562Z,18.60
2023-05-19T10:57:16.936Z,18.70
2023-05-19T10:59:45.717Z,18.50
2023-05-19T11:02:41.930Z,18.60
2023-05-19T11:05:10.796Z,18.90
2023-05-19T11:07:42.686Z,19.10
2023-05-19T11:10:11.507Z,19.30
2023-05-19T11:12:44.178Z,19.50
2023-05-19T11:15:14.478Z,19.50
2023-05-19T11:17:43.826Z,19.60
2023-05-19T11:20:23.528Z,19.80
2023-05-19T11:23:09.383Z,19.80
2023-05-19T11:25:48.070Z,20.00
2023-05-19T11:28:19.463Z,20.20
2023-05-19T11:30:51.703Z,20.30
2023-05-19T11:33:21.084Z,20.40
2023-05-19T11:35:51.157Z,20.50
2023-05-19T11:38:21.853Z,20.50
2023-05-19T11:40:53.668Z,20.50
2023-05-19T11:43:24.921Z,20.60
2023-05-19T11:45:54.255Z,20.60
2023-05-19T11:48:23.670Z,20.60
2023-05-19T11:50:52.478Z,20.80
2023-05-19T11:53:22.082Z,20.80
2023-05-19T11:55:50.353Z,20.90
2023-05-19T11:58:18.731Z,21.10
2023-05-19T12:00:47.743Z,21.20
2023-05-19T12:03:17.422Z,21.40
2023-05-19T12:05:49.405Z,21.30
2023-05-19T12:08:19.327Z,21.20
2023-05-19T12:10:51.473Z,21.20
2023-05-19T12:13:22.596Z,21.30
2023-05-19T12:15:52.260Z,21.30
2023-05-19T12:18:20.864Z,21.30
2023-05-19T12:20:49.215Z,21.30
2023-05-19T12:23:17.889Z,21.40
2023-05-19T12:25:46.329Z,21.40
2023-05-19T12:28:17.499Z,21.40
2023-05-19T12:30:49.336Z,21.40
2023-05-19T12:33:17.504Z,21.40
2023-05-19T12:35:46.261Z,21.40
2023-05-19T12:38:15.969Z,21.50
2023-05-19T12:40:44.943Z,21.50
2023-05-19T12:43:22.262Z,21.60
2023-05-19T12:45:50.559Z,21.70
2023-05-19T12:48:22.560Z,21.90
2023-05-19T12:50:53.860Z,21.90
2023-05-19T12:53:21.911Z,21.90
2023-05-19T12:55:53.646Z,22.00
2023-05-19T12:58:25.091Z,22.30
2023-05-19T13:00:59.926Z,22.70
2023-05-19T13:03:28.133Z,23.00
2023-05-19T13:05:56.290Z,23.30
2023-05-19T13:08:25.630Z,23.60
2023-05-19T13:10:53.727Z,23.80
2023-05-19T13:13:22.014Z,23.80
2023-05-19T13:15:51.519Z,23.80
2023-05-19T13:18:19.831Z,23.70
2023-05-19T13:20:50.295Z,23.80
2023-05-19T13:23:18.621Z,24.00
2023-05-19T13:25:47.044Z,24.20
2023-05-19T13:28:15.052Z,24.30
2023-05-19T13:30:45.110Z,24.30
2023-05-19T13:33:14.859Z,24.30
2023-05-19T13:35:42.986Z,24.40
2023-05-19T13:38:11.617Z,24.30
2023-05-19T13:40:40.444Z,24.30
2023-05-19T13:43:09.695Z,24.20
2023-05-19T13:45:37.999Z,24.00
2023-05-19T13:48:07.295Z,23.90
2023-05-19T13:50:37.109Z,23.70
2023-05-19T13:53:05.616Z,23.70
2023-05-19T13:55:34.303Z,23.80
2023-05-19T13:58:03.508Z,23.80
2023-05-19T14:00:32.952Z,23.90
2023-05-19T14:03:01.325Z,23.80
2023-05-19T14:05:31.004Z,23.70
2023-05-19T14:08:01.323Z,23.60
2023-05-19T14:10:29.469Z,23.50
2023-05-19T14:15:38.095Z,23.40
2023-05-19T14:18:07.286Z,23.30
2023-05-19T14:20:36.067Z,23.20
2023-05-19T14:23:05.970Z,23.10
2023-05-19T14:25:34.913Z,23.00
2023-05-19T14:28:03.350Z,22.90
2023-05-19T14:30:31.709Z,23.00
2023-05-19T14:33:00.163Z,23.00
2023-05-19T14:35:28.234Z,23.00
2023-05-19T14:37:56.334Z,23.00
2023-05-19T14:40:25.714Z,23.10
2023-05-19T14:42:53.782Z,23.20
2023-05-19T14:45:21.921Z,23.40
2023-05-19T14:47:50.077Z,23.50
2023-05-19T14:50:18.145Z,23.50
2023-05-19T14:52:46.191Z,23.50
2023-05-19T14:55:14.285Z,23.50
2023-05-19T14:57:43.644Z,23.40
2023-05-19T15:00:12.720Z,23.30
2023-05-19T15:02:41.049Z,23.20
2023-05-19T15:05:09.862Z,23.00
2023-05-19T15:07:37.909Z,22.90
2023-05-19T15:10:07.552Z,22.90
2023-05-19T15:12:35.681Z,22.80
2023-05-19T15:15:05.785Z,22.70
2023-05-19T15:17:33.826Z,22.70
2023-05-19T15:20:01.974Z,22.70
2023-05-19T15:22:30.140Z,22.80
2023-05-19T15:24:58.155Z,22.90
2023-05-19T15:27:26.172Z,22.90
2023-05-19T15:29:54.846Z,23.10
2023-05-19T15:32:24.404Z,23.40
2023-05-19T15:34:53.091Z,23.60
2023-05-19T15:37:21.150Z,23.70
2023-05-19T15:39:49.169Z,23.60
2023-05-19T15:42:17.222Z,23.70
2023-05-19T15:44:45.996Z,23.70
2023-05-19T15:47:14.082Z,23.80
2023-05-19T15:49:43.564Z,24.10
2023-05-19T15:52:11.522Z,24.20
2023-05-19T15:54:39.525Z,24.20
2023-05-19T15:57:07.901Z,24.10
2023-05-19T15:59:35.958Z,23.90
2023-05-19T16:02:04.145Z,23.70
2023-05-19T16:04:32.195Z,23.50
2023-05-19T16:07:01.581Z,23.40
2023-05-19T16:09:29.679Z,23.20
2023-05-19T16:11:57.648Z,23.10
2023-05-19T16:14:29.399Z,23.00
2023-05-19T16:16:58.121Z,22.90
2023-05-19T16:19:28.601Z,22.90
2023-05-19T16:21:57.068Z,22.80
2023-05-19T16:24:26.439Z,22.80
2023-05-19T16:26:54.518Z,22.70
2023-05-19T16:29:23.177Z,22.70
2023-05-19T16:31:51.240Z,22.70
2023-05-19T16:34:20.032Z,22.70
2023-05-19T16:36:48.129Z,22.60
2023-05-19T16:39:16.395Z,22.40
2023-05-19T16:41:45.947Z,22.30
2023-05-19T16:44:14.642Z,22.10
2023-05-19T16:46:42.719Z,22.00
2023-05-19T16:49:11.196Z,21.90
2023-05-19T16:51:39.174Z,21.80
2023-05-19T16:54:07.157Z,21.70
2023-05-19T16:56:35.191Z,21.60
2023-05-19T16:59:04.718Z,21.40
2023-05-19T17:01:32.743Z,21.20
2023-05-19T17:04:01.004Z,21.00
2023-05-19T17:06:29.118Z,20.90
2023-05-19T17:08:57.178Z,20.80
2023-05-19T17:11:25.290Z,20.70
2023-05-19T17:13:53.279Z,20.60
2023-05-19T17:16:23.504Z,20.40
2023-05-19T17:18:52.215Z,20.30
2023-05-19T17:21:20.351Z,20.20
2023-05-19T17:23:49.529Z,20.00
2023-05-19T17:26:18.199Z,19.80
2023-05-19T17:28:46.242Z,19.60
2023-05-19T17:31:15.272Z,19.40
2023-05-19T17:33:44.806Z,19.30
2023-05-19T17:36:12.913Z,19.10
2023-05-19T17:38:42.080Z,19.00
2023-05-19T17:41:10.932Z,19.00
2023-05-19T17:43:39.679Z,18.90
2023-05-19T17:46:08.015Z,18.80
2023-05-19T17:48:36.164Z,18.70
2023-05-19T17:51:07.075Z,18.60
2023-05-19T17:53:36.602Z,18.60
2023-05-19T17:56:07.270Z,18.50
2023-05-19T17:58:36.136Z,18.40
2023-05-19T18:01:06.225Z,18.40
2023-05-19T18:03:34.924Z,18.30
2023-05-19T18:06:04.991Z,18.20
2023-05-19T18:08:34.313Z,18.20
2023-05-19T18:11:03.122Z,18.10
2023-05-19T18:13:31.360Z,18.10
2023-05-19T18:16:00.215Z,18.00
2023-05-19T18:18:28.252Z,17.90
2023-05-19T18:20:57.278Z,17.90
2023-05-19T18:23:26.642Z,17.80
2023-05-19T18:25:55.041Z,17.80
2023-05-19T18:28:24.090Z,17.70
2023-05-19T18:31:00.195Z,17.60
2023-05-19T18:33:30.100Z,17.60
2023-05-19T18:35:59.716Z,17.50
2023-05-19T18:38:29.251Z,17.40
2023-05-19T18:40:57.832Z,17.40
2023-05-19T18:43:26.230Z,17.30
2023-05-19T18:45:55.195Z,17.30
2023-05-19T18:48:25.536Z,17.20
2023-05-19T18:50:53.517Z,17.20
2023-05-19T18:53:22.288Z,17.20
2023-05-19T18:55:51.684Z,17.10
2023-05-19T18:58:19.849Z,17.00
2023-05-19T19:00:48.124Z,16.90
2023-05-19T19:03:16.210Z,16.90
2023-05-19T19:05:45.309Z,16.80
2023-05-19T19:08:13.400Z,16.70
2023-05-19T19:10:41.410Z,16.70
2023-05-19T19:13:10.917Z,16.60
2023-05-19T19:15:40.269Z,16.60
2023-05-19T19:18:08.497Z,16.60
2023-05-19T19:20:36.683Z,16.50
2023-05-19T19:23:06.562Z,16.40
2023-05-19T19:25:35.076Z,16.50
2023-05-19T19:28:03.618Z,16.40
2023-05-19T19:30:33.201Z,16.40
2023-05-19T19:33:01.516Z,16.30
2023-05-19T19:35:29.679Z,16.20
2023-05-19T19:37:58.547Z,16.20
2023-05-19T19:40:26.690Z,16.20
2023-05-19T19:42:54.748Z,16.20
2023-05-19T19:45:22.764Z,16.20
2023-05-19T19:47:52.756Z,16.20
2023-05-19T19:50:21.041Z,16.10
2023-05-19T19:52:49.131Z,16.20
2023-05-19T19:55:17.231Z,16.10
2023-05-19T19:57:47.113Z,16.00
2023-05-19T20:00:16.661Z,16.00
2023-05-19T20:03:02.825Z,15.90
2023-05-19T20:05:33.755Z,15.90
2023-05-19T20:08:01.984Z,15.80
2023-05-19T20:10:29.975Z,15.80
2023-05-19T20:12:58.908Z,15.70
2023-05-19T20:15:26.974Z,15.60
2023-05-19T20:17:55.390Z,15.60
2023-05-19T20:20:23.558Z,15.50
2023-05-19T20:22:52.972Z,15.50
2023-05-19T20:25:21.233Z,15.50
2023-05-19T20:27:49.316Z,15.40
2023-05-19T20:30:17.497Z,15.40
2023-05-19T20:32:46.542Z,15.30
2023-05-19T20:35:14.692Z,15.20
2023-05-19T20:37:42.771Z,15.20
2023-05-19T20:40:12.826Z,15.20
2023-05-19T20:42:41.025Z,15.10
2023-05-19T20:45:09.977Z,15.10
2023-05-19T20:47:38.043Z,15.10
2023-05-19T20:50:07.063Z,15.00
2023-05-19T20:52:35.097Z,15.00
2023-05-19T20:55:03.102Z,15.00
2023-05-19T20:57:32.625Z,15.00
2023-05-19T21:00:01.073Z,14.90
2023-05-19T21:02:29.143Z,14.90
2023-05-19T21:04:57.232Z,14.90
2023-05-19T21:07:26.257Z,14.90
2023-05-19T21:09:54.494Z,14.90
2023-05-19T21:12:25.036Z,14.90
2023-05-19T21:14:54.407Z,14.90
2023-05-19T21:17:22.407Z,14.80
2023-05-19T21:19:50.826Z,14.80
2023-05-19T21:22:18.915Z,14.70
2023-05-19T21:24:46.916Z,14.80
2023-05-19T21:27:14.928Z,14.80
2023-05-19T21:29:42.926Z,14.70
2023-05-19T21:32:12.314Z,14.70
2023-05-19T21:34:40.344Z,14.70
2023-05-19T21:37:08.321Z,14.60
2023-05-19T21:39:36.412Z,14.60
2023-05-19T21:42:05.013Z,14.60
2023-05-19T21:44:33.188Z,14.60
2023-05-19T21:47:01.175Z,14.50
2023-05-19T21:49:31.190Z,14.50
2023-05-19T21:51:59.363Z,14.40
2023-05-19T21:54:27.576Z,14.30
2023-05-19T21:56:55.536Z,14.30
2023-05-19T21:59:24.720Z,14.20
2023-05-19T22:01:53.055Z,14.20
2023-05-19T22:04:21.254Z,14.10
2023-05-19T22:06:51.066Z,14.10
2023-05-19T22:09:19.013Z,13.90
2023-05-19T22:11:47.064Z,13.90
2023-05-19T22:14:15.163Z,13.90
2023-05-19T22:16:43.519Z,13.80
2023-05-19T22:19:12.676Z,13.80
2023-05-19T22:21:41.155Z,13.80
2023-05-19T22:24:11.314Z,13.80
2023-05-19T22:26:42.707Z,13.80
2023-05-19T22:29:15.038Z,13.80
2023-05-19T22:31:43.144Z,13.80
2023-05-19T22:34:12.531Z,13.70
2023-05-19T22:36:41.344Z,13.70
2023-05-19T22:39:10.947Z,13.70
2023-05-19T22:41:39.305Z,13.60
2023-05-19T22:44:09.145Z,13.60
2023-05-19T22:46:37.297Z,13.50
2023-05-19T22:49:05.384Z,13.50
2023-05-19T22:51:33.824Z,13.40
2023-05-19T22:54:01.895Z,13.40
2023-05-19T22:56:31.453Z,13.30
2023-05-19T22:58:59.578Z,13.30
2023-05-19T23:01:27.760Z,13.30
2023-05-19T23:03:55.906Z,13.30
2023-05-19T23:06:24.230Z,13.30
2023-05-19T23:09:00.259Z,13.30
2023-05-19T23:11:28.468Z,13.20
2023-05-19T23:13:57.877Z,13.20
2023-05-19T23:16:26.104Z,13.10
2023-05-19T23:18:54.241Z,13.10
2023-05-19T23:21:22.296Z,13.10
2023-05-19T23:23:50.884Z,13.10
2023-05-19T23:26:18.995Z,13.00
2023-05-19T23:28:47.525Z,13.00
2023-05-19T23:31:16.982Z,12.90
2023-05-19T23:33:45.109Z,12.90
2023-05-19T23:36:13.108Z,12.90
2023-05-19T23:38:41.214Z,12.80
2023-05-19T23:41:09.280Z,12.80
2023-05-19T23:43:37.746Z,12.70
2023-05-19T23:46:06.051Z,12.70
2023-05-19T23:48:36.650Z,12.70
2023-05-19T23:51:04.863Z,12.70
2023-05-19T23:53:32.904Z,12.60
2023-05-19T23:56:01.077Z,12.60
2023-05-19T23:58:29.152Z,12.60
